1916 NOT_NAMED (1916104S16153)


IBTrACS version v04r00. Visit IBTrACS website for data access.
Please direct all questions to the IBTrACS Q and A forum

Storm track - Intensity - Wind Radii - Intensity Data - Source Data - All data

Summary Information

Storm ID 1916104S16153
Start Apr 12 23Z
End Apr 16 23Z
ATCF IDs
Track status Best track data.

Storm track plot

Map of storm track

Intensity plots

No Intensity information for this storm


Radial wind information

No radial wind information for this storm


Position and Intensity Table

BASIN ISO_TIME_________ NATURE LAT LON
degrees north degrees east
SP 1916-04-12 23:00:00 NR -15.70 153.20
SP 1916-04-13 00:00:00 NR -15.80 153.15
SP 03:00:00 NR -16.10 152.98
SP 06:00:00 NR -16.42 152.83
SP 09:00:00 NR -16.76 152.69
SP 11:00:00 NR -17.00 152.60
SP 12:00:00 NR -17.13 152.56
SP 15:00:00 NR -17.53 152.45
SP 18:00:00 NR -17.95 152.37
SP 21:00:00 NR -18.35 152.32
SP 23:00:00 NR -18.60 152.30
SP 1916-04-14 00:00:00 NR -18.71 152.29
SP 03:00:00 NR -19.04 152.27
SP 06:00:00 NR -19.33 152.28
SP 09:00:00 NR -19.62 152.34
SP 11:00:00 NR -19.80 152.40
SP 12:00:00 NR -19.89 152.42
SP 15:00:00 NR -20.14 152.51
SP 18:00:00 NR -20.40 152.66
SP 21:00:00 NR -20.68 152.89
SP 23:00:00 NR -20.90 153.10
SP 1916-04-15 00:00:00 NR -21.02 153.22
SP 03:00:00 NR -21.42 153.66
SP 06:00:00 NR -21.86 154.19
SP 09:00:00 NR -22.31 154.78
SP 11:00:00 NR -22.60 155.20
SP 12:00:00 NR -22.74 155.39
SP 15:00:00 NR -23.14 156.00
SP 18:00:00 NR -23.54 156.65
SP 21:00:00 NR -23.94 157.33
SP 23:00:00 NR -24.20 157.80
SP 1916-04-16 00:00:00 NR -24.33 158.04
SP 03:00:00 NR -24.74 158.80
SP 06:00:00 NR -25.14 159.58
SP 09:00:00 NR -25.54 160.38
SP 11:00:00 NR -25.80 160.90
SP 12:00:00 NR -25.93 161.16
SP 15:00:00 NR -26.31 161.92
SP 18:00:00 NR -26.69 162.67
SP 21:00:00 NR -27.06 163.41
SP 23:00:00 NR -27.30 163.90

Source Information

Agency Information
USA
TOKYO
CMA
HKO
NEWDELHI
REUNION
BOM
NADI
WELLINGTON
DS824
TD9636 cons_worldwide_trop_cyclone_18710101-19891231-006:Line=855
TD9635
NEUMANN
MLC

All available IBTrACS Data

SEASON BASIN SUBBASIN ISO_TIME_________ NATURE LAT LON DIST2LAND LANDFALL IFLAG USA SSHS TD9636 LAT TD9636 LON TD9636 STAGE STORM SPEED STORM DIR
Year degrees north degrees east km km 1 degrees north degrees east kts degrees
1916 SP EA 1916-04-12 23:00:00 NR -15.70 153.20 631 631 __________O___ -1 -15.70 153.20 7 7 207
1916 SP EA 1916-04-13 00:00:00 NR -15.80 153.15 637 637 __________P___ -1 -15.80 153.15 7 7 207
1916 SP EA 03:00:00 NR -16.10 152.98 646 607 __________P___ -1 -16.10 152.98 7 7 206
1916 SP EA 06:00:00 NR -16.42 152.83 607 575 __________P___ -1 -16.42 152.83 7 7 204
1916 SP EA 09:00:00 NR -16.76 152.69 567 544 __________P___ -1 -16.76 152.69 7 8 201
1916 SP EA 11:00:00 NR -17.00 152.60 544 536 __________O___ -1 -17.00 152.60 7 8 197
1916 SP EA 12:00:00 NR -17.13 152.56 536 499 __________P___ -1 -17.13 152.56 7 8 194
1916 SP EA 15:00:00 NR -17.53 152.45 499 463 __________P___ -1 -17.53 152.45 7 8 192
1916 SP EA 18:00:00 NR -17.95 152.37 463 430 __________P___ -1 -17.95 152.37 7 8 189
1916 SP EA 21:00:00 NR -18.35 152.32 430 413 __________P___ -1 -18.35 152.32 7 8 186
1916 SP EA 23:00:00 NR -18.60 152.30 413 408 __________O___ -1 -18.60 152.30 7 7 187
1916 SP EA 1916-04-14 00:00:00 NR -18.71 152.29 408 393 __________P___ -1 -18.71 152.29 7 7 185
1916 SP EA 03:00:00 NR -19.04 152.27 393 379 __________P___ -1 -19.04 152.27 7 6 0
1916 SP EA 06:00:00 NR -19.33 152.28 379 354 __________P___ -1 -19.33 152.28 7 6 174
1916 SP EA 09:00:00 NR -19.62 152.34 354 340 __________P___ -1 -19.62 152.34 7 6 166
1916 SP EA 11:00:00 NR -19.80 152.40 340 330 __________O___ -1 -19.80 152.40 7 6 164
1916 SP EA 12:00:00 NR -19.89 152.42 330 317 __________P___ -1 -19.89 152.42 7 5 163
1916 SP EA 15:00:00 NR -20.14 152.51 317 297 __________P___ -1 -20.14 152.51 7 6 157
1916 SP EA 18:00:00 NR -20.40 152.66 304 295 __________P___ -1 -20.40 152.66 7 7 147
1916 SP EA 21:00:00 NR -20.68 152.89 295 295 __________P___ -1 -20.68 152.89 7 8 140
1916 SP EA 23:00:00 NR -20.90 153.10 297 297 __________O___ -1 -20.90 153.10 7 9 137
1916 SP EA 1916-04-15 00:00:00 NR -21.02 153.22 299 299 __________P___ -1 -21.02 153.22 7 11 135
1916 SP EA 03:00:00 NR -21.42 153.66 323 319 __________P___ -1 -21.42 153.66 7 12 133
1916 SP EA 06:00:00 NR -21.86 154.19 336 313 __________P___ -1 -21.86 154.19 7 14 130
1916 SP EA 09:00:00 NR -22.31 154.78 318 306 __________P___ -1 -22.31 154.78 7 14 128
1916 SP EA 11:00:00 NR -22.60 155.20 312 310 __________O___ -1 -22.60 155.20 7 14 127
1916 SP EA 12:00:00 NR -22.74 155.39 317 309 __________P___ -1 -22.74 155.39 7 14 126
1916 SP EA 15:00:00 NR -23.14 156.00 333 327 __________P___ -1 -23.14 156.00 7 14 125
1916 SP EA 18:00:00 NR -23.54 156.65 364 364 __________P___ -1 -23.54 156.65 7 15 123
1916 SP EA 21:00:00 NR -23.94 157.33 413 413 __________P___ -1 -23.94 157.33 7 15 122
1916 SP EA 23:00:00 NR -24.20 157.80 453 453 __________O___ -1 -24.20 157.80 7 15 121
1916 SP EA 1916-04-16 00:00:00 NR -24.33 158.04 471 471 __________P___ -1 -24.33 158.04 7 16 121
1916 SP EA 03:00:00 NR -24.74 158.80 545 544 __________P___ -1 -24.74 158.80 7 16 120
1916 SP EA 06:00:00 NR -25.14 159.58 624 624 __________P___ -1 -25.14 159.58 7 16 119
1916 SP MM 09:00:00 NR -25.54 160.38 648 636 __________P___ -1 -25.54 160.38 7 16 119
1916 SP MM 11:00:00 NR -25.80 160.90 638 632 __________O___ -1 -25.80 160.90 7 16 119
1916 SP MM 12:00:00 NR -25.93 161.16 628 622 __________P___ -1 -25.93 161.16 7 16 119
1916 SP MM 15:00:00 NR -26.31 161.92 626 615 __________P___ -1 -26.31 161.92 7 16 119
1916 SP MM 18:00:00 NR -26.69 162.67 617 606 __________P___ -1 -26.69 162.67 7 15 119
1916 SP MM 21:00:00 NR -27.06 163.41 615 606 __________P___ -1 -27.06 163.41 7 15 119
1916 SP MM 23:00:00 NR -27.30 163.90 612 __________O___ -1 -27.30 163.90 7 15 119